sensor_id;sensor_type;location;lat;lon;timestamp;P1;durP1;ratioP1;P2;durP2;ratioP2
12005;SDS011;6062;47.294;12.182;2023-02-01T00:00:19;0.50;;;0.50;;
12005;SDS011;6062;47.294;12.182;2023-02-01T00:02:45;0.70;;;0.70;;
12005;SDS011;6062;47.294;12.182;2023-02-01T00:05:11;0.50;;;0.50;;
12005;SDS011;6062;47.294;12.182;2023-02-01T00:07:38;0.50;;;0.50;;
12005;SDS011;6062;47.294;12.182;2023-02-01T00:10:05;1.03;;;0.67;;
12005;SDS011;6062;47.294;12.182;2023-02-01T00:12:32;0.50;;;0.50;;
12005;SDS011;6062;47.294;12.182;2023-02-01T00:14:58;0.50;;;0.50;;
12005;SDS011;6062;47.294;12.182;2023-02-01T00:17:24;0.60;;;0.60;;
12005;SDS011;6062;47.294;12.182;2023-02-01T00:19:50;0.60;;;0.60;;
12005;SDS011;6062;47.294;12.182;2023-02-01T00:22:16;0.50;;;0.50;;
12005;SDS011;6062;47.294;12.182;2023-02-01T00:24:41;0.50;;;0.50;;
12005;SDS011;6062;47.294;12.182;2023-02-01T00:27:07;1.07;;;0.50;;
12005;SDS011;6062;47.294;12.182;2023-02-01T00:29:33;0.50;;;0.50;;
12005;SDS011;6062;47.294;12.182;2023-02-01T00:31:58;0.47;;;0.47;;
12005;SDS011;6062;47.294;12.182;2023-02-01T00:34:24;0.53;;;0.53;;
12005;SDS011;6062;47.294;12.182;2023-02-01T00:36:50;0.50;;;0.50;;
12005;SDS011;6062;47.294;12.182;2023-02-01T00:39:16;0.60;;;0.60;;
12005;SDS011;6062;47.294;12.182;2023-02-01T00:41:42;0.50;;;0.50;;
12005;SDS011;6062;47.294;12.182;2023-02-01T00:44:08;0.53;;;0.53;;
12005;SDS011;6062;47.294;12.182;2023-02-01T00:46:34;0.50;;;0.50;;
12005;SDS011;6062;47.294;12.182;2023-02-01T00:49:00;0.70;;;0.60;;
12005;SDS011;6062;47.294;12.182;2023-02-01T00:51:27;0.50;;;0.50;;
12005;SDS011;6062;47.294;12.182;2023-02-01T00:53:54;0.50;;;0.50;;
12005;SDS011;6062;47.294;12.182;2023-02-01T00:56:20;0.50;;;0.50;;
12005;SDS011;6062;47.294;12.182;2023-02-01T00:58:46;0.50;;;0.50;;
12005;SDS011;6062;47.294;12.182;2023-02-01T01:01:22;0.53;;;0.53;;
12005;SDS011;6062;47.294;12.182;2023-02-01T01:03:55;0.40;;;0.40;;
12005;SDS011;6062;47.294;12.182;2023-02-01T01:06:27;0.50;;;0.50;;
12005;SDS011;6062;47.294;12.182;2023-02-01T01:08:57;0.50;;;0.50;;
12005;SDS011;6062;47.294;12.182;2023-02-01T01:11:26;0.50;;;0.50;;
12005;SDS011;6062;47.294;12.182;2023-02-01T01:13:56;0.50;;;0.50;;
12005;SDS011;6062;47.294;12.182;2023-02-01T01:16:24;0.50;;;0.50;;
12005;SDS011;6062;47.294;12.182;2023-02-01T01:18:51;0.50;;;0.50;;
12005;SDS011;6062;47.294;12.182;2023-02-01T01:21:18;0.50;;;0.50;;
12005;SDS011;6062;47.294;12.182;2023-02-01T01:23:44;0.60;;;0.60;;
12005;SDS011;6062;47.294;12.182;2023-02-01T01:26:14;1.20;;;0.60;;
12005;SDS011;6062;47.294;12.182;2023-02-01T01:28:43;0.50;;;0.50;;
12005;SDS011;6062;47.294;12.182;2023-02-01T01:31:09;0.60;;;0.60;;
12005;SDS011;6062;47.294;12.182;2023-02-01T01:33:36;0.50;;;0.50;;
12005;SDS011;6062;47.294;12.182;2023-02-01T01:36:04;0.70;;;0.70;;
12005;SDS011;6062;47.294;12.182;2023-02-01T01:38:31;0.60;;;0.60;;
12005;SDS011;6062;47.294;12.182;2023-02-01T01:40:57;0.60;;;0.60;;
12005;SDS011;6062;47.294;12.182;2023-02-01T01:43:23;0.70;;;0.70;;
12005;SDS011;6062;47.294;12.182;2023-02-01T01:45:49;0.70;;;0.70;;
12005;SDS011;6062;47.294;12.182;2023-02-01T01:48:16;0.80;;;0.80;;
12005;SDS011;6062;47.294;12.182;2023-02-01T01:50:55;0.73;;;0.73;;
12005;SDS011;6062;47.294;12.182;2023-02-01T01:53:29;0.70;;;0.70;;
12005;SDS011;6062;47.294;12.182;2023-02-01T01:56:00;0.70;;;0.70;;
12005;SDS011;6062;47.294;12.182;2023-02-01T01:58:26;0.67;;;0.60;;
12005;SDS011;6062;47.294;12.182;2023-02-01T02:00:55;0.50;;;0.50;;
12005;SDS011;6062;47.294;12.182;2023-02-01T02:06:20;0.60;;;0.60;;
12005;SDS011;6062;47.294;12.182;2023-02-01T02:09:09;0.50;;;0.50;;
12005;SDS011;6062;47.294;12.182;2023-02-01T02:11:34;0.50;;;0.50;;
12005;SDS011;6062;47.294;12.182;2023-02-01T02:14:00;0.50;;;0.50;;
12005;SDS011;6062;47.294;12.182;2023-02-01T02:19:00;0.70;;;0.70;;
12005;SDS011;6062;47.294;12.182;2023-02-01T02:21:56;0.50;;;0.50;;
12005;SDS011;6062;47.294;12.182;2023-02-01T02:33:32;0.50;;;0.50;;
12005;SDS011;6062;47.294;12.182;2023-02-01T02:36:16;0.53;;;0.53;;
12005;SDS011;6062;47.294;12.182;2023-02-01T02:42:13;0.40;;;0.40;;
12005;SDS011;6062;47.294;12.182;2023-02-01T02:51:00;0.60;;;0.60;;
12005;SDS011;6062;47.294;12.182;2023-02-01T02:54:03;0.60;;;0.60;;
12005;SDS011;6062;47.294;12.182;2023-02-01T02:57:08;0.60;;;0.60;;
12005;SDS011;6062;47.294;12.182;2023-02-01T02:59:58;0.50;;;0.50;;
12005;SDS011;6062;47.294;12.182;2023-02-01T03:02:47;0.50;;;0.50;;
12005;SDS011;6062;47.294;12.182;2023-02-01T03:05:33;0.50;;;0.50;;
12005;SDS011;6062;47.294;12.182;2023-02-01T03:16:26;0.60;;;0.60;;
12005;SDS011;6062;47.294;12.182;2023-02-01T03:21:55;0.60;;;0.60;;
12005;SDS011;6062;47.294;12.182;2023-02-01T03:24:33;0.60;;;0.60;;
12005;SDS011;6062;47.294;12.182;2023-02-01T03:27:22;0.53;;;0.53;;
12005;SDS011;6062;47.294;12.182;2023-02-01T03:32:43;0.63;;;0.63;;
12005;SDS011;6062;47.294;12.182;2023-02-01T03:41:11;0.60;;;0.60;;
12005;SDS011;6062;47.294;12.182;2023-02-01T03:46:59;0.70;;;0.53;;
12005;SDS011;6062;47.294;12.182;2023-02-01T03:49:33;1.03;;;0.70;;
12005;SDS011;6062;47.294;12.182;2023-02-01T03:52:04;0.60;;;0.60;;
12005;SDS011;6062;47.294;12.182;2023-02-01T03:54:36;0.50;;;0.50;;
12005;SDS011;6062;47.294;12.182;2023-02-01T03:57:05;0.57;;;0.57;;
12005;SDS011;6062;47.294;12.182;2023-02-01T03:59:38;0.80;;;0.80;;
12005;SDS011;6062;47.294;12.182;2023-02-01T04:02:09;0.50;;;0.50;;
12005;SDS011;6062;47.294;12.182;2023-02-01T04:04:35;0.60;;;0.60;;
12005;SDS011;6062;47.294;12.182;2023-02-01T04:07:02;1.07;;;0.60;;
12005;SDS011;6062;47.294;12.182;2023-02-01T04:09:28;0.57;;;0.57;;
12005;SDS011;6062;47.294;12.182;2023-02-01T04:11:54;1.27;;;0.60;;
12005;SDS011;6062;47.294;12.182;2023-02-01T04:14:20;0.57;;;0.57;;
12005;SDS011;6062;47.294;12.182;2023-02-01T04:16:46;0.50;;;0.50;;
12005;SDS011;6062;47.294;12.182;2023-02-01T04:19:12;0.60;;;0.60;;
12005;SDS011;6062;47.294;12.182;2023-02-01T04:21:37;0.70;;;0.70;;
12005;SDS011;6062;47.294;12.182;2023-02-01T04:24:03;0.73;;;0.73;;
12005;SDS011;6062;47.294;12.182;2023-02-01T04:26:29;0.70;;;0.70;;
12005;SDS011;6062;47.294;12.182;2023-02-01T04:28:55;1.10;;;0.70;;
12005;SDS011;6062;47.294;12.182;2023-02-01T04:31:21;0.63;;;0.63;;
12005;SDS011;6062;47.294;12.182;2023-02-01T04:33:50;0.50;;;0.50;;
12005;SDS011;6062;47.294;12.182;2023-02-01T04:36:18;0.67;;;0.67;;
12005;SDS011;6062;47.294;12.182;2023-02-01T04:38:50;0.70;;;0.70;;
12005;SDS011;6062;47.294;12.182;2023-02-01T04:41:17;0.70;;;0.70;;
12005;SDS011;6062;47.294;12.182;2023-02-01T04:43:47;0.70;;;0.70;;
12005;SDS011;6062;47.294;12.182;2023-02-01T04:46:15;0.70;;;0.70;;
12005;SDS011;6062;47.294;12.182;2023-02-01T04:48:41;0.50;;;0.50;;
12005;SDS011;6062;47.294;12.182;2023-02-01T04:51:07;0.67;;;0.67;;
12005;SDS011;6062;47.294;12.182;2023-02-01T04:53:34;0.50;;;0.50;;
12005;SDS011;6062;47.294;12.182;2023-02-01T04:56:00;0.60;;;0.60;;
12005;SDS011;6062;47.294;12.182;2023-02-01T04:58:26;0.60;;;0.60;;
12005;SDS011;6062;47.294;12.182;2023-02-01T05:00:52;0.60;;;0.60;;
12005;SDS011;6062;47.294;12.182;2023-02-01T05:03:18;0.60;;;0.60;;
12005;SDS011;6062;47.294;12.182;2023-02-01T05:05:44;0.70;;;0.70;;
12005;SDS011;6062;47.294;12.182;2023-02-01T05:08:12;0.70;;;0.70;;
12005;SDS011;6062;47.294;12.182;2023-02-01T05:10:38;0.60;;;0.60;;
12005;SDS011;6062;47.294;12.182;2023-02-01T05:13:04;0.60;;;0.60;;
12005;SDS011;6062;47.294;12.182;2023-02-01T05:15:49;0.70;;;0.70;;
12005;SDS011;6062;47.294;12.182;2023-02-01T05:18:16;0.60;;;0.60;;
12005;SDS011;6062;47.294;12.182;2023-02-01T05:20:41;0.67;;;0.67;;
12005;SDS011;6062;47.294;12.182;2023-02-01T05:23:07;0.50;;;0.50;;
12005;SDS011;6062;47.294;12.182;2023-02-01T05:25:32;0.60;;;0.60;;
12005;SDS011;6062;47.294;12.182;2023-02-01T05:27:58;0.70;;;0.60;;
12005;SDS011;6062;47.294;12.182;2023-02-01T05:30:24;0.60;;;0.60;;
12005;SDS011;6062;47.294;12.182;2023-02-01T05:32:51;0.50;;;0.50;;
12005;SDS011;6062;47.294;12.182;2023-02-01T05:35:17;0.70;;;0.60;;
12005;SDS011;6062;47.294;12.182;2023-02-01T05:37:43;0.60;;;0.60;;
12005;SDS011;6062;47.294;12.182;2023-02-01T05:40:09;0.70;;;0.70;;
12005;SDS011;6062;47.294;12.182;2023-02-01T05:42:36;0.67;;;0.60;;
12005;SDS011;6062;47.294;12.182;2023-02-01T05:45:01;0.77;;;0.70;;
12005;SDS011;6062;47.294;12.182;2023-02-01T05:47:30;0.60;;;0.60;;
12005;SDS011;6062;47.294;12.182;2023-02-01T05:49:56;0.50;;;0.50;;
12005;SDS011;6062;47.294;12.182;2023-02-01T05:52:22;0.60;;;0.60;;
12005;SDS011;6062;47.294;12.182;2023-02-01T05:54:48;0.60;;;0.60;;
12005;SDS011;6062;47.294;12.182;2023-02-01T05:57:13;0.53;;;0.53;;
12005;SDS011;6062;47.294;12.182;2023-02-01T05:59:40;0.50;;;0.50;;
12005;SDS011;6062;47.294;12.182;2023-02-01T06:02:07;0.60;;;0.60;;
12005;SDS011;6062;47.294;12.182;2023-02-01T06:04:33;0.80;;;0.80;;
12005;SDS011;6062;47.294;12.182;2023-02-01T06:06:59;0.80;;;0.80;;
12005;SDS011;6062;47.294;12.182;2023-02-01T06:09:24;0.63;;;0.63;;
12005;SDS011;6062;47.294;12.182;2023-02-01T06:11:50;0.50;;;0.50;;
12005;SDS011;6062;47.294;12.182;2023-02-01T06:14:16;0.60;;;0.60;;
12005;SDS011;6062;47.294;12.182;2023-02-01T06:16:41;0.60;;;0.60;;
12005;SDS011;6062;47.294;12.182;2023-02-01T06:19:07;0.50;;;0.50;;
12005;SDS011;6062;47.294;12.182;2023-02-01T06:21:34;0.63;;;0.60;;
12005;SDS011;6062;47.294;12.182;2023-02-01T06:24:01;0.60;;;0.60;;
12005;SDS011;6062;47.294;12.182;2023-02-01T06:26:27;0.60;;;0.60;;
12005;SDS011;6062;47.294;12.182;2023-02-01T06:28:53;0.70;;;0.70;;
12005;SDS011;6062;47.294;12.182;2023-02-01T06:31:20;0.60;;;0.60;;
12005;SDS011;6062;47.294;12.182;2023-02-01T06:33:46;0.60;;;0.60;;
12005;SDS011;6062;47.294;12.182;2023-02-01T06:36:12;0.50;;;0.50;;
12005;SDS011;6062;47.294;12.182;2023-02-01T06:38:38;0.60;;;0.60;;
12005;SDS011;6062;47.294;12.182;2023-02-01T06:41:04;0.60;;;0.60;;
12005;SDS011;6062;47.294;12.182;2023-02-01T06:43:30;0.60;;;0.60;;
12005;SDS011;6062;47.294;12.182;2023-02-01T06:46:01;0.60;;;0.60;;
12005;SDS011;6062;47.294;12.182;2023-02-01T06:48:30;0.70;;;0.70;;
12005;SDS011;6062;47.294;12.182;2023-02-01T06:50:56;0.63;;;0.60;;
12005;SDS011;6062;47.294;12.182;2023-02-01T06:53:21;0.70;;;0.70;;
12005;SDS011;6062;47.294;12.182;2023-02-01T06:55:51;0.77;;;0.53;;
12005;SDS011;6062;47.294;12.182;2023-02-01T06:58:29;0.60;;;0.60;;
12005;SDS011;6062;47.294;12.182;2023-02-01T07:00:56;0.50;;;0.50;;
12005;SDS011;6062;47.294;12.182;2023-02-01T07:03:22;0.80;;;0.80;;
12005;SDS011;6062;47.294;12.182;2023-02-01T07:05:48;0.83;;;0.83;;
12005;SDS011;6062;47.294;12.182;2023-02-01T07:08:14;0.80;;;0.80;;
12005;SDS011;6062;47.294;12.182;2023-02-01T07:10:40;0.80;;;0.80;;
12005;SDS011;6062;47.294;12.182;2023-02-01T07:13:06;0.83;;;0.80;;
12005;SDS011;6062;47.294;12.182;2023-02-01T07:15:32;0.60;;;0.60;;
12005;SDS011;6062;47.294;12.182;2023-02-01T07:17:57;0.70;;;0.70;;
12005;SDS011;6062;47.294;12.182;2023-02-01T07:20:23;0.63;;;0.63;;
12005;SDS011;6062;47.294;12.182;2023-02-01T07:22:53;0.70;;;0.70;;
12005;SDS011;6062;47.294;12.182;2023-02-01T07:25:21;0.70;;;0.70;;
12005;SDS011;6062;47.294;12.182;2023-02-01T07:27:48;0.80;;;0.80;;
12005;SDS011;6062;47.294;12.182;2023-02-01T07:30:14;0.70;;;0.70;;
12005;SDS011;6062;47.294;12.182;2023-02-01T07:32:39;0.60;;;0.60;;
12005;SDS011;6062;47.294;12.182;2023-02-01T07:35:05;0.60;;;0.60;;
12005;SDS011;6062;47.294;12.182;2023-02-01T07:37:31;0.60;;;0.60;;
12005;SDS011;6062;47.294;12.182;2023-02-01T07:39:57;1.03;;;0.80;;
12005;SDS011;6062;47.294;12.182;2023-02-01T07:42:23;0.60;;;0.60;;
12005;SDS011;6062;47.294;12.182;2023-02-01T07:44:48;0.63;;;0.60;;
12005;SDS011;6062;47.294;12.182;2023-02-01T07:47:14;0.50;;;0.50;;
12005;SDS011;6062;47.294;12.182;2023-02-01T07:49:39;0.60;;;0.60;;
12005;SDS011;6062;47.294;12.182;2023-02-01T07:52:05;0.50;;;0.50;;
12005;SDS011;6062;47.294;12.182;2023-02-01T07:54:31;0.50;;;0.50;;
12005;SDS011;6062;47.294;12.182;2023-02-01T07:56:56;0.60;;;0.60;;
12005;SDS011;6062;47.294;12.182;2023-02-01T07:59:22;0.80;;;0.80;;
12005;SDS011;6062;47.294;12.182;2023-02-01T08:01:48;0.70;;;0.70;;
12005;SDS011;6062;47.294;12.182;2023-02-01T08:04:13;0.50;;;0.50;;
12005;SDS011;6062;47.294;12.182;2023-02-01T08:06:39;0.70;;;0.70;;
12005;SDS011;6062;47.294;12.182;2023-02-01T08:09:06;0.63;;;0.63;;
12005;SDS011;6062;47.294;12.182;2023-02-01T08:11:36;0.60;;;0.60;;
12005;SDS011;6062;47.294;12.182;2023-02-01T08:14:03;0.50;;;0.50;;
12005;SDS011;6062;47.294;12.182;2023-02-01T08:16:30;0.93;;;0.60;;
12005;SDS011;6062;47.294;12.182;2023-02-01T08:18:56;0.50;;;0.50;;
12005;SDS011;6062;47.294;12.182;2023-02-01T08:21:23;0.60;;;0.60;;
12005;SDS011;6062;47.294;12.182;2023-02-01T08:24:01;0.55;;;0.55;;
12005;SDS011;6062;47.294;12.182;2023-02-01T08:26:29;0.70;;;0.70;;
12005;SDS011;6062;47.294;12.182;2023-02-01T08:28:56;0.55;;;0.55;;
12005;SDS011;6062;47.294;12.182;2023-02-01T08:31:25;0.50;;;0.50;;
12005;SDS011;6062;47.294;12.182;2023-02-01T08:33:54;0.60;;;0.60;;
12005;SDS011;6062;47.294;12.182;2023-02-01T08:36:27;1.53;;;0.50;;
12005;SDS011;6062;47.294;12.182;2023-02-01T08:38:55;0.60;;;0.60;;
12005;SDS011;6062;47.294;12.182;2023-02-01T08:41:23;0.67;;;0.60;;
12005;SDS011;6062;47.294;12.182;2023-02-01T08:43:52;1.55;;;0.60;;
12005;SDS011;6062;47.294;12.182;2023-02-01T08:46:19;0.60;;;0.60;;
12005;SDS011;6062;47.294;12.182;2023-02-01T08:48:46;0.70;;;0.70;;
12005;SDS011;6062;47.294;12.182;2023-02-01T08:51:13;0.70;;;0.70;;
12005;SDS011;6062;47.294;12.182;2023-02-01T08:53:41;2.37;;;0.60;;
12005;SDS011;6062;47.294;12.182;2023-02-01T08:56:08;0.50;;;0.50;;
12005;SDS011;6062;47.294;12.182;2023-02-01T08:58:35;0.50;;;0.50;;
12005;SDS011;6062;47.294;12.182;2023-02-01T09:01:05;0.50;;;0.50;;
12005;SDS011;6062;47.294;12.182;2023-02-01T09:03:40;0.60;;;0.60;;
12005;SDS011;6062;47.294;12.182;2023-02-01T09:06:07;0.60;;;0.60;;
12005;SDS011;6062;47.294;12.182;2023-02-01T09:08:37;0.47;;;0.47;;
12005;SDS011;6062;47.294;12.182;2023-02-01T09:11:05;0.50;;;0.50;;
12005;SDS011;6062;47.294;12.182;2023-02-01T09:13:35;0.60;;;0.60;;
12005;SDS011;6062;47.294;12.182;2023-02-01T09:16:01;0.60;;;0.60;;
12005;SDS011;6062;47.294;12.182;2023-02-01T09:18:28;0.63;;;0.63;;
12005;SDS011;6062;47.294;12.182;2023-02-01T09:20:54;0.70;;;0.60;;
12005;SDS011;6062;47.294;12.182;2023-02-01T09:23:19;0.60;;;0.60;;
12005;SDS011;6062;47.294;12.182;2023-02-01T09:25:45;0.70;;;0.70;;
12005;SDS011;6062;47.294;12.182;2023-02-01T09:28:12;0.70;;;0.60;;
12005;SDS011;6062;47.294;12.182;2023-02-01T09:30:37;0.70;;;0.70;;
12005;SDS011;6062;47.294;12.182;2023-02-01T09:33:03;0.50;;;0.50;;
12005;SDS011;6062;47.294;12.182;2023-02-01T09:35:29;0.60;;;0.60;;
12005;SDS011;6062;47.294;12.182;2023-02-01T09:37:55;0.70;;;0.70;;
12005;SDS011;6062;47.294;12.182;2023-02-01T09:40:21;0.60;;;0.60;;
12005;SDS011;6062;47.294;12.182;2023-02-01T09:48:36;0.60;;;0.60;;
12005;SDS011;6062;47.294;12.182;2023-02-01T09:51:06;0.50;;;0.50;;
12005;SDS011;6062;47.294;12.182;2023-02-01T09:53:47;1.70;;;0.70;;
12005;SDS011;6062;47.294;12.182;2023-02-01T09:56:29;0.60;;;0.60;;
12005;SDS011;6062;47.294;12.182;2023-02-01T10:02:00;0.83;;;0.70;;
12005;SDS011;6062;47.294;12.182;2023-02-01T10:04:29;0.80;;;0.80;;
12005;SDS011;6062;47.294;12.182;2023-02-01T10:07:06;0.83;;;0.60;;
12005;SDS011;6062;47.294;12.182;2023-02-01T10:26:37;0.70;;;0.70;;
12005;SDS011;6062;47.294;12.182;2023-02-01T10:29:13;1.27;;;0.70;;
12005;SDS011;6062;47.294;12.182;2023-02-01T10:31:45;0.70;;;0.70;;
12005;SDS011;6062;47.294;12.182;2023-02-01T10:34:21;0.60;;;0.60;;
12005;SDS011;6062;47.294;12.182;2023-02-01T10:36:57;0.60;;;0.60;;
12005;SDS011;6062;47.294;12.182;2023-02-01T10:39:33;0.60;;;0.60;;
12005;SDS011;6062;47.294;12.182;2023-02-01T10:41:59;0.50;;;0.50;;
12005;SDS011;6062;47.294;12.182;2023-02-01T10:44:26;0.60;;;0.60;;
12005;SDS011;6062;47.294;12.182;2023-02-01T10:46:55;0.70;;;0.70;;
12005;SDS011;6062;47.294;12.182;2023-02-01T10:49:22;0.70;;;0.70;;
12005;SDS011;6062;47.294;12.182;2023-02-01T10:52:12;0.50;;;0.50;;
12005;SDS011;6062;47.294;12.182;2023-02-01T10:54:47;0.60;;;0.60;;
12005;SDS011;6062;47.294;12.182;2023-02-01T10:57:23;0.60;;;0.60;;
12005;SDS011;6062;47.294;12.182;2023-02-01T10:59:54;0.70;;;0.70;;
12005;SDS011;6062;47.294;12.182;2023-02-01T11:02:33;0.70;;;0.70;;
12005;SDS011;6062;47.294;12.182;2023-02-01T11:05:01;1.38;;;0.65;;
12005;SDS011;6062;47.294;12.182;2023-02-01T11:07:37;0.60;;;0.60;;
12005;SDS011;6062;47.294;12.182;2023-02-01T11:10:19;0.60;;;0.60;;
12005;SDS011;6062;47.294;12.182;2023-02-01T11:13:05;0.52;;;0.52;;
12005;SDS011;6062;47.294;12.182;2023-02-01T11:15:43;0.50;;;0.50;;
12005;SDS011;6062;47.294;12.182;2023-02-01T11:18:21;0.60;;;0.60;;
12005;SDS011;6062;47.294;12.182;2023-02-01T11:20:53;0.57;;;0.57;;
12005;SDS011;6062;47.294;12.182;2023-02-01T11:23:21;0.67;;;0.67;;
12005;SDS011;6062;47.294;12.182;2023-02-01T11:25:55;0.68;;;0.60;;
12005;SDS011;6062;47.294;12.182;2023-02-01T11:28:25;1.80;;;0.70;;
12005;SDS011;6062;47.294;12.182;2023-02-01T11:30:59;0.60;;;0.60;;
12005;SDS011;6062;47.294;12.182;2023-02-01T11:33:33;0.60;;;0.60;;
12005;SDS011;6062;47.294;12.182;2023-02-01T11:36:07;0.60;;;0.60;;
12005;SDS011;6062;47.294;12.182;2023-02-01T11:44:39;0.93;;;0.60;;
12005;SDS011;6062;47.294;12.182;2023-02-01T11:49:55;0.80;;;0.68;;
12005;SDS011;6062;47.294;12.182;2023-02-01T11:55:42;0.50;;;0.50;;
12005;SDS011;6062;47.294;12.182;2023-02-01T12:01:37;0.60;;;0.60;;
12005;SDS011;6062;47.294;12.182;2023-02-01T12:04:42;0.50;;;0.50;;
12005;SDS011;6062;47.294;12.182;2023-02-01T12:07:50;0.60;;;0.60;;
12005;SDS011;6062;47.294;12.182;2023-02-01T12:19:45;0.60;;;0.60;;
12005;SDS011;6062;47.294;12.182;2023-02-01T12:25:23;0.60;;;0.60;;
12005;SDS011;6062;47.294;12.182;2023-02-01T12:45:41;0.50;;;0.50;;
12005;SDS011;6062;47.294;12.182;2023-02-01T12:50:49;0.60;;;0.60;;
12005;SDS011;6062;47.294;12.182;2023-02-01T12:53:55;0.60;;;0.60;;
12005;SDS011;6062;47.294;12.182;2023-02-01T12:56:55;0.85;;;0.60;;
12005;SDS011;6062;47.294;12.182;2023-02-01T13:03:01;0.60;;;0.60;;
12005;SDS011;6062;47.294;12.182;2023-02-01T13:06:02;0.52;;;0.50;;
12005;SDS011;6062;47.294;12.182;2023-02-01T13:11:39;0.60;;;0.60;;
12005;SDS011;6062;47.294;12.182;2023-02-01T13:17:04;0.55;;;0.55;;
12005;SDS011;6062;47.294;12.182;2023-02-01T13:20:02;0.60;;;0.60;;
12005;SDS011;6062;47.294;12.182;2023-02-01T13:22:40;0.70;;;0.70;;
12005;SDS011;6062;47.294;12.182;2023-02-01T13:25:16;0.50;;;0.50;;
12005;SDS011;6062;47.294;12.182;2023-02-01T13:28:05;0.63;;;0.63;;
12005;SDS011;6062;47.294;12.182;2023-02-01T13:33:52;0.65;;;0.60;;
12005;SDS011;6062;47.294;12.182;2023-02-01T13:36:53;0.60;;;0.60;;
12005;SDS011;6062;47.294;12.182;2023-02-01T13:42:45;0.70;;;0.70;;
12005;SDS011;6062;47.294;12.182;2023-02-01T13:45:30;0.77;;;0.77;;
12005;SDS011;6062;47.294;12.182;2023-02-01T13:48:03;0.88;;;0.80;;
12005;SDS011;6062;47.294;12.182;2023-02-01T13:50:32;0.70;;;0.70;;
12005;SDS011;6062;47.294;12.182;2023-02-01T13:53:14;0.97;;;0.90;;
12005;SDS011;6062;47.294;12.182;2023-02-01T13:55:57;0.70;;;0.70;;
12005;SDS011;6062;47.294;12.182;2023-02-01T14:11:53;0.70;;;0.70;;
12005;SDS011;6062;47.294;12.182;2023-02-01T14:19:21;0.70;;;0.70;;
12005;SDS011;6062;47.294;12.182;2023-02-01T14:21:50;1.10;;;1.00;;
12005;SDS011;6062;47.294;12.182;2023-02-01T14:26:55;0.90;;;0.80;;
12005;SDS011;6062;47.294;12.182;2023-02-01T14:34:51;0.87;;;0.87;;
12005;SDS011;6062;47.294;12.182;2023-02-01T14:39:53;0.80;;;0.80;;
12005;SDS011;6062;47.294;12.182;2023-02-01T14:44:54;0.80;;;0.80;;
12005;SDS011;6062;47.294;12.182;2023-02-01T14:58:26;1.00;;;0.90;;
12005;SDS011;6062;47.294;12.182;2023-02-01T15:01:18;0.80;;;0.80;;
12005;SDS011;6062;47.294;12.182;2023-02-01T15:06:48;0.90;;;0.80;;
12005;SDS011;6062;47.294;12.182;2023-02-01T15:12:25;1.00;;;0.90;;
12005;SDS011;6062;47.294;12.182;2023-02-01T15:23:00;1.10;;;0.90;;
12005;SDS011;6062;47.294;12.182;2023-02-01T15:25:30;0.90;;;0.90;;
12005;SDS011;6062;47.294;12.182;2023-02-01T15:28:03;1.10;;;0.90;;
12005;SDS011;6062;47.294;12.182;2023-02-01T15:30:34;1.30;;;1.00;;
12005;SDS011;6062;47.294;12.182;2023-02-01T15:43:36;1.90;;;1.00;;
12005;SDS011;6062;47.294;12.182;2023-02-01T15:46:13;0.93;;;0.90;;
12005;SDS011;6062;47.294;12.182;2023-02-01T15:48:51;1.03;;;0.90;;
12005;SDS011;6062;47.294;12.182;2023-02-01T15:51:20;0.90;;;0.90;;
12005;SDS011;6062;47.294;12.182;2023-02-01T15:53:58;1.10;;;0.90;;
12005;SDS011;6062;47.294;12.182;2023-02-01T15:56:33;0.90;;;0.83;;
12005;SDS011;6062;47.294;12.182;2023-02-01T15:59:02;0.93;;;0.90;;
12005;SDS011;6062;47.294;12.182;2023-02-01T16:01:38;1.17;;;0.87;;
12005;SDS011;6062;47.294;12.182;2023-02-01T16:04:23;1.00;;;0.90;;
12005;SDS011;6062;47.294;12.182;2023-02-01T16:06:59;1.43;;;0.80;;
12005;SDS011;6062;47.294;12.182;2023-02-01T16:10:03;2.30;;;1.00;;
12005;SDS011;6062;47.294;12.182;2023-02-01T16:12:27;0.80;;;0.80;;
12005;SDS011;6062;47.294;12.182;2023-02-01T16:15:10;0.90;;;0.90;;
12005;SDS011;6062;47.294;12.182;2023-02-01T16:17:35;1.10;;;1.00;;
12005;SDS011;6062;47.294;12.182;2023-02-01T16:20:01;0.80;;;0.80;;
12005;SDS011;6062;47.294;12.182;2023-02-01T16:22:26;1.20;;;1.00;;
12005;SDS011;6062;47.294;12.182;2023-02-01T16:24:52;0.90;;;0.90;;
12005;SDS011;6062;47.294;12.182;2023-02-01T16:27:18;0.87;;;0.87;;
12005;SDS011;6062;47.294;12.182;2023-02-01T16:29:44;0.80;;;0.80;;
12005;SDS011;6062;47.294;12.182;2023-02-01T16:32:15;0.90;;;0.90;;
12005;SDS011;6062;47.294;12.182;2023-02-01T16:34:45;0.83;;;0.83;;
12005;SDS011;6062;47.294;12.182;2023-02-01T16:37:13;1.50;;;1.30;;
12005;SDS011;6062;47.294;12.182;2023-02-01T16:39:44;1.20;;;1.10;;
12005;SDS011;6062;47.294;12.182;2023-02-01T16:42:13;5.50;;;1.63;;
12005;SDS011;6062;47.294;12.182;2023-02-01T16:44:41;1.93;;;1.30;;
12005;SDS011;6062;47.294;12.182;2023-02-01T16:47:12;2.33;;;1.00;;
12005;SDS011;6062;47.294;12.182;2023-02-01T16:49:47;0.80;;;0.80;;
12005;SDS011;6062;47.294;12.182;2023-02-01T16:52:21;1.20;;;1.07;;
12005;SDS011;6062;47.294;12.182;2023-02-01T16:54:50;0.93;;;0.90;;
12005;SDS011;6062;47.294;12.182;2023-02-01T16:57:18;0.80;;;0.80;;
12005;SDS011;6062;47.294;12.182;2023-02-01T16:59:47;1.27;;;0.90;;
12005;SDS011;6062;47.294;12.182;2023-02-01T17:02:17;0.90;;;0.80;;
12005;SDS011;6062;47.294;12.182;2023-02-01T17:04:44;0.90;;;0.90;;
12005;SDS011;6062;47.294;12.182;2023-02-01T17:07:14;0.60;;;0.60;;
12005;SDS011;6062;47.294;12.182;2023-02-01T17:09:43;1.00;;;0.90;;
12005;SDS011;6062;47.294;12.182;2023-02-01T17:12:43;0.80;;;0.80;;
12005;SDS011;6062;47.294;12.182;2023-02-01T17:15:02;0.90;;;0.73;;
12005;SDS011;6062;47.294;12.182;2023-02-01T17:17:36;1.10;;;0.80;;
12005;SDS011;6062;47.294;12.182;2023-02-01T17:20:04;0.83;;;0.80;;
12005;SDS011;6062;47.294;12.182;2023-02-01T17:22:31;1.10;;;1.00;;
12005;SDS011;6062;47.294;12.182;2023-02-01T17:24:57;0.87;;;0.87;;
12005;SDS011;6062;47.294;12.182;2023-02-01T17:27:23;0.80;;;0.80;;
12005;SDS011;6062;47.294;12.182;2023-02-01T17:29:48;0.83;;;0.83;;
12005;SDS011;6062;47.294;12.182;2023-02-01T17:32:16;0.90;;;0.90;;
12005;SDS011;6062;47.294;12.182;2023-02-01T17:34:47;0.77;;;0.77;;
12005;SDS011;6062;47.294;12.182;2023-02-01T17:37:27;0.80;;;0.80;;
12005;SDS011;6062;47.294;12.182;2023-02-01T17:39:57;0.80;;;0.80;;
12005;SDS011;6062;47.294;12.182;2023-02-01T17:42:24;1.57;;;0.90;;
12005;SDS011;6062;47.294;12.182;2023-02-01T17:44:54;1.00;;;0.90;;
12005;SDS011;6062;47.294;12.182;2023-02-01T17:47:23;0.80;;;0.80;;
12005;SDS011;6062;47.294;12.182;2023-02-01T17:49:48;1.67;;;1.10;;
12005;SDS011;6062;47.294;12.182;2023-02-01T17:52:20;0.80;;;0.80;;
12005;SDS011;6062;47.294;12.182;2023-02-01T17:54:48;1.17;;;0.90;;
12005;SDS011;6062;47.294;12.182;2023-02-01T17:57:17;0.80;;;0.80;;
12005;SDS011;6062;47.294;12.182;2023-02-01T17:59:43;1.00;;;1.00;;
12005;SDS011;6062;47.294;12.182;2023-02-01T18:02:20;0.80;;;0.80;;
12005;SDS011;6062;47.294;12.182;2023-02-01T18:04:49;0.90;;;0.90;;
12005;SDS011;6062;47.294;12.182;2023-02-01T18:07:16;0.93;;;0.70;;
12005;SDS011;6062;47.294;12.182;2023-02-01T18:09:42;0.70;;;0.70;;
12005;SDS011;6062;47.294;12.182;2023-02-01T18:12:15;0.93;;;0.87;;
12005;SDS011;6062;47.294;12.182;2023-02-01T18:14:46;0.80;;;0.80;;
12005;SDS011;6062;47.294;12.182;2023-02-01T18:17:11;1.07;;;0.87;;
12005;SDS011;6062;47.294;12.182;2023-02-01T18:19:37;1.90;;;0.80;;
12005;SDS011;6062;47.294;12.182;2023-02-01T18:22:03;0.80;;;0.80;;
12005;SDS011;6062;47.294;12.182;2023-02-01T18:24:29;0.70;;;0.70;;
12005;SDS011;6062;47.294;12.182;2023-02-01T18:26:57;0.80;;;0.80;;
12005;SDS011;6062;47.294;12.182;2023-02-01T18:29:24;0.80;;;0.80;;
12005;SDS011;6062;47.294;12.182;2023-02-01T18:31:50;0.80;;;0.80;;